Passumpsic, Vermont
Current Conditions -  °F | °C
As of 11:15 PM on Wednesday 26 Nov 2014 (Local Time) from KCDA Reporting Station
Light Snow Light Snow  
Wind Chill: 21°   Ceiling: 1200
Heat Index: 29°   Visibility: 2.5mi
Dew Point: 25°   Wind: 8mph
Humidity: 84%   Direction: 310°NW
Pressure: 29.86"   Gusts: NA
Location:  44.38°N, 72.03°W
Report Text: KCDA 270415Z AUTO 31007KT 2 1/2SM -SN BKN012 OVC021 M02/M04 A2986 RMK AO2 T10171040
Loading
Personal Weather Stations






























Interactive Weather Map New forecast layout! Learn more

10-Day Weather Forecast

Advertisements
Track Severe Weather on mobile